sensor_id;sensor_type;location;lat;lon;timestamp;pressure;altitude;pressure_sealevel;temperature;humidity
57779;BME280;43608;49.486;9.640;2022-09-27T00:00:14;96874.84;;;9.95;93.72
57779;BME280;43608;49.486;9.640;2022-09-27T00:00:45;96859.97;;;9.90;93.68
57779;BME280;43608;49.486;9.640;2022-09-27T00:01:15;96873.13;;;9.94;93.50
57779;BME280;43608;49.486;9.640;2022-09-27T00:01:46;96874.91;;;9.93;93.93
57779;BME280;43608;49.486;9.640;2022-09-27T00:02:16;96875.78;;;9.94;93.87
57779;BME280;43608;49.486;9.640;2022-09-27T00:02:47;96863.63;;;9.86;93.84
57779;BME280;43608;49.486;9.640;2022-09-27T00:03:18;96873.22;;;9.90;93.77
57779;BME280;43608;49.486;9.640;2022-09-27T00:03:52;96871.41;;;9.92;94.01
57779;BME280;43608;49.486;9.640;2022-09-27T00:04:24;96876.69;;;9.92;93.77
57779;BME280;43608;49.486;9.640;2022-09-27T00:04:55;96842.84;;;9.74;93.99
57779;BME280;43608;49.486;9.640;2022-09-27T00:05:25;96874.94;;;9.91;93.85
57779;BME280;43608;49.486;9.640;2022-09-27T00:06:03;96868.75;;;9.92;94.26
57779;BME280;43608;49.486;9.640;2022-09-27T00:06:34;96873.16;;;9.92;94.00
57779;BME280;43608;49.486;9.640;2022-09-27T00:07:04;96869.66;;;9.91;94.24
57779;BME280;43608;49.486;9.640;2022-09-27T00:07:35;96871.41;;;9.92;94.31
57779;BME280;43608;49.486;9.640;2022-09-27T00:08:05;96874.91;;;9.93;94.10
57779;BME280;43608;49.486;9.640;2022-09-27T00:08:36;96874.03;;;9.92;94.08
57779;BME280;43608;49.486;9.640;2022-09-27T00:09:07;96871.47;;;9.89;93.95
57779;BME280;43608;49.486;9.640;2022-09-27T00:09:37;96862.00;;;9.82;94.01
57779;BME280;43608;49.486;9.640;2022-09-27T00:10:08;96875.81;;;9.92;94.17
57779;BME280;43608;49.486;9.640;2022-09-27T00:10:38;96875.00;;;9.90;94.17
57779;BME280;43608;49.486;9.640;2022-09-27T00:11:31;96873.16;;;9.92;94.43
57779;BME280;43608;49.486;9.640;2022-09-27T00:12:01;96874.91;;;9.93;94.22
57779;BME280;43608;49.486;9.640;2022-09-27T00:12:32;96867.00;;;9.91;94.15
57779;BME280;43608;49.486;9.640;2022-09-27T00:13:02;96869.59;;;9.93;94.22
57779;BME280;43608;49.486;9.640;2022-09-27T00:13:33;96868.75;;;9.92;94.06
57779;BME280;43608;49.486;9.640;2022-09-27T00:14:04;96865.19;;;9.94;94.26
57779;BME280;43608;49.486;9.640;2022-09-27T00:14:35;96872.25;;;9.93;94.08
57779;BME280;43608;49.486;9.640;2022-09-27T00:15:06;96864.31;;;9.93;94.15
57779;BME280;43608;49.486;9.640;2022-09-27T00:15:36;96858.16;;;9.92;94.14
57779;BME280;43608;49.486;9.640;2022-09-27T00:16:08;96871.41;;;9.92;94.09
57779;BME280;43608;49.486;9.640;2022-09-27T00:16:40;96866.97;;;9.93;93.89
57779;BME280;43608;49.486;9.640;2022-09-27T00:17:11;96863.41;;;9.94;94.04
57779;BME280;43608;49.486;9.640;2022-09-27T00:17:41;96860.75;;;9.94;94.12
57779;BME280;43608;49.486;9.640;2022-09-27T00:18:12;96864.25;;;9.95;94.14
57779;BME280;43608;49.486;9.640;2022-09-27T00:18:42;96859.03;;;9.93;94.11
57779;BME280;43608;49.486;9.640;2022-09-27T00:19:18;96866.97;;;9.93;94.21
57779;BME280;43608;49.486;9.640;2022-09-27T00:19:50;96859.06;;;9.91;94.64
57779;BME280;43608;49.486;9.640;2022-09-27T00:20:21;96852.81;;;9.94;94.27
57779;BME280;43608;49.486;9.640;2022-09-27T00:20:52;96866.06;;;9.94;94.49
57779;BME280;43608;49.486;9.640;2022-09-27T00:21:22;96849.34;;;9.92;94.29
57779;BME280;43608;49.486;9.640;2022-09-27T00:21:53;96859.91;;;9.94;94.17
57779;BME280;43608;49.486;9.640;2022-09-27T00:22:24;96849.31;;;9.94;94.40
57779;BME280;43608;49.486;9.640;2022-09-27T00:22:54;96850.19;;;9.94;94.37
57779;BME280;43608;49.486;9.640;2022-09-27T00:23:25;96846.69;;;9.94;94.18
57779;BME280;43608;49.486;9.640;2022-09-27T00:23:56;96849.34;;;9.92;93.90
57779;BME280;43608;49.486;9.640;2022-09-27T00:24:27;96851.03;;;9.95;93.96
57779;BME280;43608;49.486;9.640;2022-09-27T00:24:57;96848.38;;;9.95;93.80
57779;BME280;43608;49.486;9.640;2022-09-27T00:25:28;96845.72;;;9.95;93.98
57779;BME280;43608;49.486;9.640;2022-09-27T00:25:59;96846.63;;;9.95;93.77
57779;BME280;43608;49.486;9.640;2022-09-27T00:26:29;96847.47;;;9.96;93.94
57779;BME280;43608;49.486;9.640;2022-09-27T00:27:00;96852.75;;;9.96;93.70
57779;BME280;43608;49.486;9.640;2022-09-27T00:27:31;96845.72;;;9.96;93.86
57779;BME280;43608;49.486;9.640;2022-09-27T00:28:01;96843.16;;;9.93;93.76
57779;BME280;43608;49.486;9.640;2022-09-27T00:28:31;96847.47;;;9.96;93.68
57779;BME280;43608;49.486;9.640;2022-09-27T00:29:02;96838.81;;;9.90;93.80
57779;BME280;43608;49.486;9.640;2022-09-27T00:29:32;96848.34;;;9.96;93.58
57779;BME280;43608;49.486;9.640;2022-09-27T00:30:03;96834.28;;;9.94;93.66
57779;BME280;43608;49.486;9.640;2022-09-27T00:30:34;96840.41;;;9.96;93.44
57779;BME280;43608;49.486;9.640;2022-09-27T00:31:13;96837.78;;;9.95;93.65
57779;BME280;43608;49.486;9.640;2022-09-27T00:31:46;96825.75;;;9.84;93.70
57779;BME280;43608;49.486;9.640;2022-09-27T00:32:17;96844.81;;;9.96;93.47
57779;BME280;43608;49.486;9.640;2022-09-27T00:32:47;96845.72;;;9.95;93.41
57779;BME280;43608;49.486;9.640;2022-09-27T00:33:18;96844.81;;;9.96;93.42
57779;BME280;43608;49.486;9.640;2022-09-27T00:33:50;96849.28;;;9.95;93.42
57779;BME280;43608;49.486;9.640;2022-09-27T00:34:23;96845.72;;;9.95;93.15
57779;BME280;43608;49.486;9.640;2022-09-27T00:34:53;96846.69;;;9.94;93.30
57779;BME280;43608;49.486;9.640;2022-09-27T00:35:24;96859.03;;;9.93;93.45
57779;BME280;43608;49.486;9.640;2022-09-27T00:35:54;96806.63;;;9.76;93.32
57779;BME280;43608;49.486;9.640;2022-09-27T00:36:26;96830.94;;;9.89;93.39
57779;BME280;43608;49.486;9.640;2022-09-27T00:36:57;96834.41;;;9.91;93.31
57779;BME280;43608;49.486;9.640;2022-09-27T00:37:27;96829.28;;;9.85;93.38
57779;BME280;43608;49.486;9.640;2022-09-27T00:37:58;96837.00;;;9.92;93.18
57779;BME280;43608;49.486;9.640;2022-09-27T00:38:28;96840.56;;;9.91;93.22
57779;BME280;43608;49.486;9.640;2022-09-27T00:38:59;96814.56;;;9.76;93.12
57779;BME280;43608;49.486;9.640;2022-09-27T00:39:30;96842.34;;;9.91;93.21
57779;BME280;43608;49.486;9.640;2022-09-27T00:40:01;96838.81;;;9.90;93.39
57779;BME280;43608;49.486;9.640;2022-09-27T00:40:31;96825.88;;;9.81;93.41
57779;BME280;43608;49.486;9.640;2022-09-27T00:41:01;96834.44;;;9.89;93.39
57779;BME280;43608;49.486;9.640;2022-09-27T00:41:34;96831.78;;;9.89;93.30
57779;BME280;43608;49.486;9.640;2022-09-27T00:42:07;96833.56;;;9.89;93.29
57779;BME280;43608;49.486;9.640;2022-09-27T00:42:39;96837.13;;;9.88;93.50
57779;BME280;43608;49.486;9.640;2022-09-27T00:43:19;96833.63;;;9.87;93.37
57779;BME280;43608;49.486;9.640;2022-09-27T00:43:54;96833.63;;;9.87;93.60
57779;BME280;43608;49.486;9.640;2022-09-27T00:45:06;96825.69;;;9.87;93.71
57779;BME280;43608;49.486;9.640;2022-09-27T00:45:37;96828.34;;;9.87;93.55
57779;BME280;43608;49.486;9.640;2022-09-27T00:46:07;96821.34;;;9.85;93.46
57779;BME280;43608;49.486;9.640;2022-09-27T00:46:41;96815.16;;;9.86;93.51
57779;BME280;43608;49.486;9.640;2022-09-27T00:47:50;96828.38;;;9.86;93.67
57779;BME280;43608;49.486;9.640;2022-09-27T00:48:25;96822.38;;;9.81;93.66
57779;BME280;43608;49.486;9.640;2022-09-27T00:49:37;96825.81;;;9.83;93.83
57779;BME280;43608;49.486;9.640;2022-09-27T00:50:25;96831.16;;;9.81;93.77
57779;BME280;43608;49.486;9.640;2022-09-27T00:51:00;96826.78;;;9.80;93.75
57779;BME280;43608;49.486;9.640;2022-09-27T00:51:33;96824.13;;;9.80;93.85
57779;BME280;43608;49.486;9.640;2022-09-27T00:52:15;96812.81;;;9.75;94.03
57779;BME280;43608;49.486;9.640;2022-09-27T00:53:44;96823.41;;;9.75;93.95
57779;BME280;43608;49.486;9.640;2022-09-27T00:54:19;96820.88;;;9.72;93.76
57779;BME280;43608;49.486;9.640;2022-09-27T00:54:54;96819.03;;;9.74;93.90
57779;BME280;43608;49.486;9.640;2022-09-27T00:55:40;96820.00;;;9.71;93.85
57779;BME280;43608;49.486;9.640;2022-09-27T00:56:18;96821.78;;;9.71;94.02
57779;BME280;43608;49.486;9.640;2022-09-27T00:56:49;96748.16;;;9.29;93.95
57779;BME280;43608;49.486;9.640;2022-09-27T00:57:21;96822.69;;;9.70;94.12
57779;BME280;43608;49.486;9.640;2022-09-27T00:57:52;96787.78;;;9.58;94.09
57779;BME280;43608;49.486;9.640;2022-09-27T00:58:27;96810.41;;;9.67;94.30
57779;BME280;43608;49.486;9.640;2022-09-27T00:59:24;96814.91;;;9.65;94.39
57779;BME280;43608;49.486;9.640;2022-09-27T01:00:03;96798.50;;;9.54;94.28
57779;BME280;43608;49.486;9.640;2022-09-27T01:00:37;96806.19;;;9.62;94.47
57779;BME280;43608;49.486;9.640;2022-09-27T01:01:08;96807.88;;;9.64;94.39
57779;BME280;43608;49.486;9.640;2022-09-27T01:01:45;96807.94;;;9.63;94.47
57779;BME280;43608;49.486;9.640;2022-09-27T01:02:15;96810.53;;;9.64;94.60
57779;BME280;43608;49.486;9.640;2022-09-27T01:02:49;96807.03;;;9.64;94.77
57779;BME280;43608;49.486;9.640;2022-09-27T01:03:51;96815.88;;;9.63;94.43
57779;BME280;43608;49.486;9.640;2022-09-27T01:04:26;96807.94;;;9.63;94.51
57779;BME280;43608;49.486;9.640;2022-09-27T01:04:57;96807.94;;;9.63;94.40
57779;BME280;43608;49.486;9.640;2022-09-27T01:05:28;96799.16;;;9.61;94.64
57779;BME280;43608;49.486;9.640;2022-09-27T01:05:59;96769.00;;;9.38;94.42
57779;BME280;43608;49.486;9.640;2022-09-27T01:06:30;96762.84;;;9.37;94.46
57779;BME280;43608;49.486;9.640;2022-09-27T01:07:01;96802.69;;;9.61;94.66
57779;BME280;43608;49.486;9.640;2022-09-27T01:07:31;96807.09;;;9.61;94.52
57779;BME280;43608;49.486;9.640;2022-09-27T01:08:02;96786.28;;;9.50;94.67
57779;BME280;43608;49.486;9.640;2022-09-27T01:08:33;96809.75;;;9.61;94.81
57779;BME280;43608;49.486;9.640;2022-09-27T01:09:06;96799.28;;;9.57;94.81
57779;BME280;43608;49.486;9.640;2022-09-27T01:09:38;96794.06;;;9.54;94.82
57779;BME280;43608;49.486;9.640;2022-09-27T01:10:09;96790.50;;;9.55;94.89
57779;BME280;43608;49.486;9.640;2022-09-27T01:11:18;96806.25;;;9.60;94.96
57779;BME280;43608;49.486;9.640;2022-09-27T01:11:49;96785.44;;;9.48;94.81
57779;BME280;43608;49.486;9.640;2022-09-27T01:14:46;96793.16;;;9.55;94.85
57779;BME280;43608;49.486;9.640;2022-09-27T01:16:29;96802.88;;;9.55;94.74
57779;BME280;43608;49.486;9.640;2022-09-27T01:18:32;96807.28;;;9.54;94.82
57779;BME280;43608;49.486;9.640;2022-09-27T01:20:42;96800.28;;;9.53;95.02
57779;BME280;43608;49.486;9.640;2022-09-27T01:21:44;96792.53;;;9.47;95.20
57779;BME280;43608;49.486;9.640;2022-09-27T01:27:30;96796.03;;;9.48;95.22
57779;BME280;43608;49.486;9.640;2022-09-27T01:30:24;96801.31;;;9.48;95.46
57779;BME280;43608;49.486;9.640;2022-09-27T01:33:41;96796.94;;;9.47;95.42
57779;BME280;43608;49.486;9.640;2022-09-27T01:36:28;96786.34;;;9.47;95.70
57779;BME280;43608;49.486;9.640;2022-09-27T01:40:57;96786.41;;;9.45;95.60
57779;BME280;43608;49.486;9.640;2022-09-27T01:42:38;96782.97;;;9.43;95.44
57779;BME280;43608;49.486;9.640;2022-09-27T01:43:35;96788.19;;;9.45;95.68
57779;BME280;43608;49.486;9.640;2022-09-27T01:44:29;96781.13;;;9.45;95.60
57779;BME280;43608;49.486;9.640;2022-09-27T01:46:25;96763.72;;;9.38;95.47
57779;BME280;43608;49.486;9.640;2022-09-27T01:47:02;96782.91;;;9.45;95.32
57779;BME280;43608;49.486;9.640;2022-09-27T01:47:44;96785.56;;;9.45;95.33
57779;BME280;43608;49.486;9.640;2022-09-27T01:48:23;96774.97;;;9.45;95.32
57779;BME280;43608;49.486;9.640;2022-09-27T01:48:57;96783.75;;;9.45;95.22
57779;BME280;43608;49.486;9.640;2022-09-27T01:49:38;96770.69;;;9.40;95.32
57779;BME280;43608;49.486;9.640;2022-09-27T01:50:20;96772.34;;;9.45;95.37
57779;BME280;43608;49.486;9.640;2022-09-27T01:51:06;96781.13;;;9.45;95.46
57779;BME280;43608;49.486;9.640;2022-09-27T01:51:43;96776.72;;;9.44;95.45
57779;BME280;43608;49.486;9.640;2022-09-27T01:52:17;96780.25;;;9.45;95.32
57779;BME280;43608;49.486;9.640;2022-09-27T01:52:56;96776.78;;;9.42;95.27
57779;BME280;43608;49.486;9.640;2022-09-27T01:53:33;96783.75;;;9.45;95.42
57779;BME280;43608;49.486;9.640;2022-09-27T01:54:06;96781.13;;;9.45;95.26
57779;BME280;43608;49.486;9.640;2022-09-27T01:54:44;96778.47;;;9.45;95.30
57779;BME280;43608;49.486;9.640;2022-09-27T01:55:18;96778.47;;;9.45;95.38
57779;BME280;43608;49.486;9.640;2022-09-27T01:55:52;96785.56;;;9.45;95.29
57779;BME280;43608;49.486;9.640;2022-09-27T01:56:37;96766.44;;;9.35;95.26
57779;BME280;43608;49.486;9.640;2022-09-27T01:57:12;96773.19;;;9.45;95.35
57779;BME280;43608;49.486;9.640;2022-09-27T01:57:49;96779.38;;;9.44;95.28
57779;BME280;43608;49.486;9.640;2022-09-27T01:58:36;96773.19;;;9.45;95.48
57779;BME280;43608;49.486;9.640;2022-09-27T01:59:13;96768.81;;;9.44;95.65
57779;BME280;43608;49.486;9.640;2022-09-27T01:59:58;96773.19;;;9.45;95.57
57779;BME280;43608;49.486;9.640;2022-09-27T02:00:31;96767.09;;;9.43;95.36
57779;BME280;43608;49.486;9.640;2022-09-27T02:01:02;96747.25;;;9.28;95.81
57779;BME280;43608;49.486;9.640;2022-09-27T02:01:35;96759.19;;;9.41;95.57
57779;BME280;43608;49.486;9.640;2022-09-27T02:02:08;96772.34;;;9.45;95.77
57779;BME280;43608;49.486;9.640;2022-09-27T02:02:42;96767.13;;;9.41;95.89
57779;BME280;43608;49.486;9.640;2022-09-27T02:03:19;96744.78;;;9.23;95.57
57779;BME280;43608;49.486;9.640;2022-09-27T02:03:52;96769.69;;;9.45;95.89
57779;BME280;43608;49.486;9.640;2022-09-27T02:04:27;96767.03;;;9.45;95.86
57779;BME280;43608;49.486;9.640;2022-09-27T02:05:01;96767.94;;;9.43;95.78
57779;BME280;43608;49.486;9.640;2022-09-27T02:05:48;96767.09;;;9.43;95.65
57779;BME280;43608;49.486;9.640;2022-09-27T02:06:24;96767.94;;;9.43;95.83
57779;BME280;43608;49.486;9.640;2022-09-27T02:07:04;96758.28;;;9.42;95.73
57779;BME280;43608;49.486;9.640;2022-09-27T02:07:42;96760.13;;;9.40;95.79
57779;BME280;43608;49.486;9.640;2022-09-27T02:08:37;96764.47;;;9.41;95.98
57779;BME280;43608;49.486;9.640;2022-09-27T02:09:13;96757.44;;;9.42;95.80
57779;BME280;43608;49.486;9.640;2022-09-27T02:10:10;96750.56;;;9.36;95.82
57779;BME280;43608;49.486;9.640;2022-09-27T02:10:44;96761.81;;;9.43;95.85
57779;BME280;43608;49.486;9.640;2022-09-27T02:11:15;96744.50;;;9.33;95.75
57779;BME280;43608;49.486;9.640;2022-09-27T02:11:49;96771.50;;;9.42;95.83
57779;BME280;43608;49.486;9.640;2022-09-27T02:12:26;96748.94;;;9.31;95.71
57779;BME280;43608;49.486;9.640;2022-09-27T02:13:47;96764.47;;;9.41;95.96
57779;BME280;43608;49.486;9.640;2022-09-27T02:15:47;96771.56;;;9.41;95.89
57779;BME280;43608;49.486;9.640;2022-09-27T02:18:18;96775.09;;;9.40;96.08
57779;BME280;43608;49.486;9.640;2022-09-27T02:20:14;96768.97;;;9.39;95.94
57779;BME280;43608;49.486;9.640;2022-09-27T02:20:55;96770.78;;;9.37;95.94
57779;BME280;43608;49.486;9.640;2022-09-27T02:21:40;96757.84;;;9.28;96.01
57779;BME280;43608;49.486;9.640;2022-09-27T02:22:16;96734.38;;;9.17;95.91
57779;BME280;43608;49.486;9.640;2022-09-27T02:24:12;96763.06;;;9.30;96.02
57779;BME280;43608;49.486;9.640;2022-09-27T02:25:33;96770.78;;;9.37;95.96
57779;BME280;43608;49.486;9.640;2022-09-27T02:26:21;96772.56;;;9.37;96.22
57779;BME280;43608;49.486;9.640;2022-09-27T02:26:56;96759.53;;;9.31;96.25
57779;BME280;43608;49.486;9.640;2022-09-27T02:27:37;96769.06;;;9.36;96.29
57779;BME280;43608;49.486;9.640;2022-09-27T02:29:06;96763.00;;;9.33;96.17
57779;BME280;43608;49.486;9.640;2022-09-27T02:29:43;96766.50;;;9.33;96.28
57779;BME280;43608;49.486;9.640;2022-09-27T02:30:15;96767.41;;;9.32;96.36
57779;BME280;43608;49.486;9.640;2022-09-27T02:30:46;96763.97;;;9.30;96.26
57779;BME280;43608;49.486;9.640;2022-09-27T02:31:16;96705.00;;;8.98;96.35
57779;BME280;43608;49.486;9.640;2022-09-27T02:31:47;96765.69;;;9.31;96.21
57779;BME280;43608;49.486;9.640;2022-09-27T02:32:18;96769.25;;;9.30;96.10
57779;BME280;43608;49.486;9.640;2022-09-27T02:32:49;96752.88;;;9.17;95.80
57779;BME280;43608;49.486;9.640;2022-09-27T02:33:23;96771.09;;;9.26;95.31
57779;BME280;43608;49.486;9.640;2022-09-27T02:34:06;96754.78;;;9.12;95.32
57779;BME280;43608;49.486;9.640;2022-09-27T02:34:39;96765.91;;;9.23;95.20
57779;BME280;43608;49.486;9.640;2022-09-27T02:35:17;96779.13;;;9.23;95.00
57779;BME280;43608;49.486;9.640;2022-09-27T02:35:49;96775.66;;;9.21;94.81
57779;BME280;43608;49.486;9.640;2022-09-27T02:36:20;96773.03;;;9.21;94.55
57779;BME280;43608;49.486;9.640;2022-09-27T02:36:50;96759.97;;;9.15;94.35
57779;BME280;43608;49.486;9.640;2022-09-27T02:37:22;96775.72;;;9.20;94.15
57779;BME280;43608;49.486;9.640;2022-09-27T02:37:54;96773.16;;;9.17;94.00
57779;BME280;43608;49.486;9.640;2022-09-27T02:38:24;96767.84;;;9.17;93.92
57779;BME280;43608;49.486;9.640;2022-09-27T02:38:56;96744.56;;;9.00;93.92
57779;BME280;43608;49.486;9.640;2022-09-27T02:39:27;96767.97;;;9.14;93.58
57779;BME280;43608;49.486;9.640;2022-09-27T02:39:57;96779.31;;;9.17;93.41
57779;BME280;43608;49.486;9.640;2022-09-27T02:40:34;96765.25;;;9.15;93.41
57779;BME280;43608;49.486;9.640;2022-09-27T02:41:21;96770.59;;;9.14;93.31
57779;BME280;43608;49.486;9.640;2022-09-27T02:41:51;96770.59;;;9.14;93.28
57779;BME280;43608;49.486;9.640;2022-09-27T02:42:22;96765.38;;;9.12;93.33
57779;BME280;43608;49.486;9.640;2022-09-27T02:42:53;96736.00;;;8.91;93.10
57779;BME280;43608;49.486;9.640;2022-09-27T02:43:28;96765.41;;;9.11;93.32
57779;BME280;43608;49.486;9.640;2022-09-27T02:44:03;96772.41;;;9.12;93.17
57779;BME280;43608;49.486;9.640;2022-09-27T02:44:35;96775.06;;;9.12;93.33
57779;BME280;43608;49.486;9.640;2022-09-27T02:45:07;96768.97;;;9.09;93.25
57779;BME280;43608;49.486;9.640;2022-09-27T02:46:00;96766.41;;;9.06;93.16
57779;BME280;43608;49.486;9.640;2022-09-27T02:53:56;96773.56;;;9.03;93.30
57779;BME280;43608;49.486;9.640;2022-09-27T02:55:25;96771.81;;;9.02;93.30
57779;BME280;43608;49.486;9.640;2022-09-27T02:57:40;96785.88;;;9.02;93.18
57779;BME280;43608;49.486;9.640;2022-09-27T02:59:58;96778.91;;;9.01;93.41
57779;BME280;43608;49.486;9.640;2022-09-27T03:01:52;96782.44;;;9.00;93.40
57779;BME280;43608;49.486;9.640;2022-09-27T03:02:52;96781.56;;;9.00;93.44
57779;BME280;43608;49.486;9.640;2022-09-27T03:04:16;96770.31;;;8.93;93.22
57779;BME280;43608;49.486;9.640;2022-09-27T03:05:42;96782.50;;;8.99;93.67
57779;BME280;43608;49.486;9.640;2022-09-27T03:06:16;96776.44;;;8.95;93.23
57779;BME280;43608;49.486;9.640;2022-09-27T03:06:48;96780.72;;;8.99;93.39
57779;BME280;43608;49.486;9.640;2022-09-27T03:07:21;96778.91;;;9.00;93.11
57779;BME280;43608;49.486;9.640;2022-09-27T03:07:51;96786.84;;;9.00;93.32
57779;BME280;43608;49.486;9.640;2022-09-27T03:08:22;96742.56;;;8.78;93.35
57779;BME280;43608;49.486;9.640;2022-09-27T03:08:52;96781.56;;;9.00;93.20
57779;BME280;43608;49.486;9.640;2022-09-27T03:09:27;96786.84;;;9.00;93.53
57779;BME280;43608;49.486;9.640;2022-09-27T03:09:58;96747.06;;;8.74;93.67
57779;BME280;43608;49.486;9.640;2022-09-27T03:10:29;96756.50;;;8.83;93.57
57779;BME280;43608;49.486;9.640;2022-09-27T03:10:59;96757.47;;;8.81;93.60
57779;BME280;43608;49.486;9.640;2022-09-27T03:11:29;96786.03;;;8.98;93.61
57779;BME280;43608;49.486;9.640;2022-09-27T03:12:00;96792.13;;;9.01;93.75
57779;BME280;43608;49.486;9.640;2022-09-27T03:12:31;96786.81;;;9.01;93.63
57779;BME280;43608;49.486;9.640;2022-09-27T03:13:02;96785.94;;;9.01;93.62
57779;BME280;43608;49.486;9.640;2022-09-27T03:13:34;96790.38;;;9.00;93.73
57779;BME280;43608;49.486;9.640;2022-09-27T03:14:07;96786.81;;;9.01;93.93
57779;BME280;43608;49.486;9.640;2022-09-27T03:14:39;96786.84;;;9.00;93.85
57779;BME280;43608;49.486;9.640;2022-09-27T03:15:09;96771.25;;;8.90;94.05
57779;BME280;43608;49.486;9.640;2022-09-27T03:15:40;96789.50;;;9.00;93.97
57779;BME280;43608;49.486;9.640;2022-09-27T03:16:10;96792.13;;;9.00;94.05
57779;BME280;43608;49.486;9.640;2022-09-27T03:16:41;96773.91;;;8.90;94.11
57779;BME280;43608;49.486;9.640;2022-09-27T03:17:11;96786.84;;;9.00;94.22
57779;BME280;43608;49.486;9.640;2022-09-27T03:17:42;96774.69;;;8.94;94.44
57779;BME280;43608;49.486;9.640;2022-09-27T03:18:12;96784.19;;;9.00;94.16
57779;BME280;43608;49.486;9.640;2022-09-27T03:18:43;96781.56;;;9.00;94.11
57779;BME280;43608;49.486;9.640;2022-09-27T03:19:13;96778.91;;;9.00;94.25
57779;BME280;43608;49.486;9.640;2022-09-27T03:19:43;96777.38;;;8.92;94.38
57779;BME280;43608;49.486;9.640;2022-09-27T03:20:14;96784.41;;;8.93;94.33
57779;BME280;43608;49.486;9.640;2022-09-27T03:20:45;96778.13;;;8.98;94.28
57779;BME280;43608;49.486;9.640;2022-09-27T03:21:15;96788.59;;;9.01;94.36
57779;BME280;43608;49.486;9.640;2022-09-27T03:21:45;96787.72;;;9.00;94.22
57779;BME280;43608;49.486;9.640;2022-09-27T03:22:16;96778.97;;;8.98;94.25
57779;BME280;43608;49.486;9.640;2022-09-27T03:22:46;96789.50;;;9.00;94.21
57779;BME280;43608;49.486;9.640;2022-09-27T03:23:17;96777.44;;;8.91;94.24
57779;BME280;43608;49.486;9.640;2022-09-27T03:23:47;96787.72;;;9.00;94.42
57779;BME280;43608;49.486;9.640;2022-09-27T03:24:18;96770.41;;;8.90;94.27
57779;BME280;43608;49.486;9.640;2022-09-27T03:24:48;96799.25;;;8.98;94.63
57779;BME280;43608;49.486;9.640;2022-09-27T03:25:18;96786.84;;;9.00;94.34
57779;BME280;43608;49.486;9.640;2022-09-27T03:25:50;96686.47;;;8.37;94.45
57779;BME280;43608;49.486;9.640;2022-09-27T03:26:21;96798.25;;;9.02;94.61
57779;BME280;43608;49.486;9.640;2022-09-27T03:26:51;96795.66;;;9.00;94.65
57779;BME280;43608;49.486;9.640;2022-09-27T03:27:21;96791.22;;;9.01;94.53
57779;BME280;43608;49.486;9.640;2022-09-27T03:27:52;96793.06;;;8.99;94.59
57779;BME280;43608;49.486;9.640;2022-09-27T03:28:23;96791.22;;;9.01;94.58
57779;BME280;43608;49.486;9.640;2022-09-27T03:28:54;96792.13;;;9.00;94.67
57779;BME280;43608;49.486;9.640;2022-09-27T03:29:25;96793.00;;;9.00;94.65
57779;BME280;43608;49.486;9.640;2022-09-27T03:29:55;96786.00;;;8.99;94.84
57779;BME280;43608;49.486;9.640;2022-09-27T03:30:26;96782.66;;;8.92;94.86
57779;BME280;43608;49.486;9.640;2022-09-27T03:30:57;96793.09;;;8.97;94.82
57779;BME280;43608;49.486;9.640;2022-09-27T03:31:27;96800.94;;;9.00;94.73
57779;BME280;43608;49.486;9.640;2022-09-27T03:31:57;96800.06;;;9.00;94.81
57779;BME280;43608;49.486;9.640;2022-09-27T03:32:28;96779.19;;;8.90;94.86
57779;BME280;43608;49.486;9.640;2022-09-27T03:33:00;96785.34;;;8.91;94.96
57779;BME280;43608;49.486;9.640;2022-09-27T03:33:30;96796.56;;;8.99;95.13
57779;BME280;43608;49.486;9.640;2022-09-27T03:34:02;96793.91;;;8.99;94.85
57779;BME280;43608;49.486;9.640;2022-09-27T03:34:33;96784.34;;;8.95;94.93
57779;BME280;43608;49.486;9.640;2022-09-27T03:35:03;96778.28;;;8.91;95.12
57779;BME280;43608;49.486;9.640;2022-09-27T03:35:34;96791.28;;;8.99;95.09
57779;BME280;43608;49.486;9.640;2022-09-27T03:36:06;96792.13;;;9.00;95.11
57779;BME280;43608;49.486;9.640;2022-09-27T03:36:36;96754.03;;;8.77;94.97
57779;BME280;43608;49.486;9.640;2022-09-27T03:37:06;96788.63;;;8.99;95.06
57779;BME280;43608;49.486;9.640;2022-09-27T03:37:38;96799.19;;;8.99;95.20
57779;BME280;43608;49.486;9.640;2022-09-27T03:38:09;96791.28;;;8.99;95.09
57779;BME280;43608;49.486;9.640;2022-09-27T03:38:40;96788.63;;;8.99;94.90
57779;BME280;43608;49.486;9.640;2022-09-27T03:39:10;96786.09;;;8.96;95.04
57779;BME280;43608;49.486;9.640;2022-09-27T03:39:40;96792.19;;;8.98;95.02
57779;BME280;43608;49.486;9.640;2022-09-27T03:40:11;96793.06;;;8.99;94.84
57779;BME280;43608;49.486;9.640;2022-09-27T03:40:41;96786.94;;;8.97;94.79
57779;BME280;43608;49.486;9.640;2022-09-27T03:41:12;96793.91;;;8.99;94.85
57779;BME280;43608;49.486;9.640;2022-09-27T03:41:42;96792.13;;;9.00;94.86
57779;BME280;43608;49.486;9.640;2022-09-27T03:42:13;96779.13;;;8.93;94.74
57779;BME280;43608;49.486;9.640;2022-09-27T03:42:43;96794.78;;;9.00;94.74
57779;BME280;43608;49.486;9.640;2022-09-27T03:43:14;96777.44;;;8.91;94.98
57779;BME280;43608;49.486;9.640;2022-09-27T03:43:44;96790.41;;;8.99;94.76
57779;BME280;43608;49.486;9.640;2022-09-27T03:44:15;96793.91;;;8.99;94.68
57779;BME280;43608;49.486;9.640;2022-09-27T03:44:45;96792.13;;;9.00;94.94
57779;BME280;43608;49.486;9.640;2022-09-27T03:45:16;96785.09;;;9.00;94.78
57779;BME280;43608;49.486;9.640;2022-09-27T03:45:47;96788.63;;;8.99;94.91
57779;BME280;43608;49.486;9.640;2022-09-27T03:46:17;96785.13;;;8.99;94.79
57779;BME280;43608;49.486;9.640;2022-09-27T03:46:48;96780.75;;;8.98;94.74
57779;BME280;43608;49.486;9.640;2022-09-27T03:47:18;96706.34;;;8.50;94.82
57779;BME280;43608;49.486;9.640;2022-09-27T03:47:49;96770.41;;;8.90;94.67
57779;BME280;43608;49.486;9.640;2022-09-27T03:48:19;96786.84;;;9.00;94.73
57779;BME280;43608;49.486;9.640;2022-09-27T03:48:49;96786.91;;;8.98;94.98
57779;BME280;43608;49.486;9.640;2022-09-27T03:49:20;96791.28;;;8.99;94.70
57779;BME280;43608;49.486;9.640;2022-09-27T03:49:50;96773.84;;;8.92;94.85
57779;BME280;43608;49.486;9.640;2022-09-27T03:50:20;96788.63;;;8.99;95.12
57779;BME280;43608;49.486;9.640;2022-09-27T03:50:51;96783.34;;;8.99;94.92
57779;BME280;43608;49.486;9.640;2022-09-27T03:51:21;96786.00;;;8.99;95.13
57779;BME280;43608;49.486;9.640;2022-09-27T03:51:52;96791.31;;;8.98;95.05